Time;durP1;ratioP1;P1;durP2;ratioP2;P2;SDS_P1;SDS_P2;PMS_P1;PMS_P2;Temp;Humidity;BMP_temperature;BMP_pressure;BME280_temperature;BME280_humidity;BME280_pressure;Samples;Min_cycle;Max_cycle;Signal;HPM_P1;HPM_P2
2022/04/15 00:02:03;;;;;;;11.93;4.90;;;;;;;19.16;41.19;102172.19;4992463;28;20542;-68
2022/04/15 00:04:30;;;;;;;7.25;3.83;;;;;;;19.10;41.31;102178.22;4993543;28;20097;-68
2022/04/15 00:06:56;;;;;;;7.70;5.05;;;;;;;19.04;41.08;102176.13;4993369;28;20046;-68
2022/04/15 00:09:21;;;;;;;8.85;5.10;;;;;;;19.00;40.60;102182.88;4993712;28;20038;-68
2022/04/15 00:11:47;;;;;;;8.93;5.43;;;;;;;18.94;40.56;102180.75;4995380;28;20030;-68
2022/04/15 00:14:12;;;;;;;10.00;5.80;;;;;;;18.90;41.46;102182.03;4995743;28;20030;-67
2022/04/15 00:16:38;;;;;;;16.77;7.20;;;;;;;18.87;40.91;102179.63;4997056;28;20030;-68
2022/04/15 00:19:03;;;;;;;11.65;5.75;;;;;;;18.82;41.06;102181.94;4996844;28;20031;-68
2022/04/15 00:21:29;;;;;;;9.40;5.88;;;;;;;18.78;40.92;102188.69;4996843;28;20030;-68
2022/04/15 00:23:56;;;;;;;11.35;6.70;;;;;;;18.76;42.03;102187.13;4997159;28;20030;-69
2022/04/15 00:26:22;;;;;;;10.23;6.30;;;;;;;18.74;41.09;102189.13;4996206;28;20038;-69
2022/04/15 00:28:47;;;;;;;12.13;6.18;;;;;;;18.70;41.42;102191.31;4995289;28;20053;-68
2022/04/15 00:31:12;;;;;;;11.05;6.30;;;;;;;18.67;41.72;102188.00;4996670;28;20033;-67
2022/04/15 00:33:38;;;;;;;12.18;5.82;;;;;;;18.64;42.08;102189.16;4997108;28;20038;-67
2022/04/15 00:36:03;;;;;;;9.63;6.18;;;;;;;18.62;41.42;102193.88;4996841;28;20077;-68
2022/04/15 00:38:29;;;;;;;7.60;5.15;;;;;;;18.59;41.65;102191.47;4996783;28;20023;-68
2022/04/15 00:40:54;;;;;;;8.85;5.07;;;;;;;18.52;41.39;102188.50;4996586;28;20026;-67
2022/04/15 00:43:20;;;;;;;8.40;5.57;;;;;;;18.50;42.34;102198.66;4996575;28;20038;-67
2022/04/15 00:45:46;;;;;;;7.57;4.93;;;;;;;18.45;41.57;102194.63;4995029;28;20026;-67
2022/04/15 00:48:13;;;;;;;10.13;5.50;;;;;;;18.40;42.25;102192.34;4995146;28;20037;-68
2022/04/15 00:50:40;;;;;;;13.38;6.18;;;;;;;18.35;42.40;102200.06;4996499;28;20395;-68
2022/04/15 00:53:09;;;;;;;11.68;6.40;;;;;;;18.31;41.33;102201.38;4995190;28;20030;-68
2022/04/15 00:55:35;;;;;;;8.93;5.53;;;;;;;18.29;41.90;102199.78;4996581;28;20479;-68
2022/04/15 00:58:02;;;;;;;13.02;5.38;;;;;;;18.28;41.96;102200.81;4996577;28;20664;-68
2022/04/15 01:00:31;;;;;;;9.23;5.07;;;;;;;18.26;42.89;102205.50;4996066;28;20045;-67
2022/04/15 01:02:58;;;;;;;10.07;4.60;;;;;;;18.23;42.13;102200.38;4996354;28;20476;-69
2022/04/15 01:05:24;;;;;;;8.07;5.03;;;;;;;18.20;42.04;102206.09;4996208;28;20471;-68
2022/04/15 01:07:51;;;;;;;9.43;5.50;;;;;;;18.14;42.21;102201.25;4995756;28;20105;-66
2022/04/15 01:10:18;;;;;;;8.65;5.97;;;;;;;18.11;41.89;102202.41;4995886;28;20018;-68
2022/04/15 01:12:46;;;;;;;8.02;5.00;;;;;;;18.07;41.88;102206.38;4995907;28;20026;-67
2022/04/15 01:15:13;;;;;;;10.82;5.55;;;;;;;18.02;42.12;102212.25;4995783;28;20030;-68
2022/04/15 01:17:39;;;;;;;12.50;6.13;;;;;;;17.99;43.02;102204.41;4994812;28;20022;-67
2022/04/15 01:20:07;;;;;;;9.45;5.75;;;;;;;17.95;41.54;102212.97;4995366;28;20026;-68
2022/04/15 01:22:37;;;;;;;11.18;6.43;;;;;;;17.92;41.82;102207.84;4995246;28;20423;-67
2022/04/15 01:25:03;;;;;;;13.95;6.88;;;;;;;17.90;43.13;102205.25;4995367;28;20037;-68
2022/04/15 01:27:33;;;;;;;10.18;5.38;;;;;;;17.87;42.68;102204.66;4994134;28;20027;-68
2022/04/15 01:29:58;;;;;;;11.38;5.68;;;;;;;17.82;42.71;102202.41;4995588;28;20026;-67
2022/04/15 01:32:24;;;;;;;10.05;5.30;;;;;;;17.80;42.70;102203.53;4995394;28;20022;-68
2022/04/15 01:34:49;;;;;;;9.95;5.38;;;;;;;17.76;41.36;102219.22;4995219;28;20109;-67
2022/04/15 01:37:16;;;;;;;10.30;5.15;;;;;;;17.73;42.31;102207.81;4995231;28;20026;-68
2022/04/15 01:39:43;;;;;;;8.90;4.53;;;;;;;17.68;42.02;102216.38;4995235;28;20033;-67
2022/04/15 01:42:12;;;;;;;8.70;4.40;;;;;;;17.65;41.78;102216.66;4995239;28;20029;-67
2022/04/15 01:44:39;;;;;;;9.30;5.30;;;;;;;17.62;42.52;102222.34;4994842;28;20040;-68
2022/04/15 01:47:04;;;;;;;8.57;4.18;;;;;;;17.57;42.59;102219.22;4994979;28;20047;-68
2022/04/15 01:49:30;;;;;;;6.15;3.97;;;;;;;17.55;43.25;102225.78;4995301;28;20137;-68
2022/04/15 01:51:55;;;;;;;5.32;2.97;;;;;;;17.51;42.02;102230.56;4994986;28;20037;-68
2022/04/15 01:54:20;;;;;;;5.40;3.38;;;;;;;17.48;42.63;102225.44;4994944;28;20032;-68
2022/04/15 01:56:46;;;;;;;7.68;4.07;;;;;;;17.45;42.97;102231.13;4994729;28;20037;-68
2022/04/15 01:59:11;;;;;;;8.40;4.00;;;;;;;17.39;41.91;102226.28;4993623;28;20172;-69
2022/04/15 02:01:36;;;;;;;5.88;4.13;;;;;;;17.38;41.92;102229.97;4994708;28;20427;-68
2022/04/15 02:04:02;;;;;;;4.47;3.05;;;;;;;17.33;42.84;102233.13;4994644;28;20357;-68
2022/04/15 02:06:28;;;;;;;5.30;2.50;;;;;;;17.29;41.84;102228.97;4994244;28;20026;-67
2022/04/15 02:08:53;;;;;;;10.27;4.38;;;;;;;17.26;42.56;102237.34;4994361;28;20033;-66
2022/04/15 02:11:19;;;;;;;9.93;4.35;;;;;;;17.22;41.97;102235.06;4976945;28;20106;-68
2022/04/15 02:13:44;;;;;;;7.03;4.55;;;;;;;17.19;43.41;102235.34;4994185;28;20022;-68
2022/04/15 02:16:10;;;;;;;8.52;5.03;;;;;;;17.16;42.81;102247.31;4994314;28;20150;-68
2022/04/15 02:18:36;;;;;;;10.20;5.53;;;;;;;17.15;42.93;102242.00;4994168;28;20030;-68
2022/04/15 02:21:01;;;;;;;6.63;4.15;;;;;;;17.14;42.93;102248.44;4993891;28;20037;-68
2022/04/15 02:23:27;;;;;;;4.72;2.17;;;;;;;17.12;43.07;102247.69;4994439;28;20141;-68
2022/04/15 02:25:52;;;;;;;4.88;2.78;;;;;;;17.09;42.70;102246.13;4994020;28;20034;-67
2022/04/15 02:28:17;;;;;;;2.72;2.10;;;;;;;17.06;43.15;102242.81;4993835;28;20525;-68
2022/04/15 02:30:47;;;;;;;5.32;2.58;;;;;;;17.01;42.27;102243.25;4993699;28;20033;-69
2022/04/15 02:33:13;;;;;;;4.22;2.90;;;;;;;16.98;42.55;102245.34;4993917;28;20026;-68
2022/04/15 02:35:38;;;;;;;7.03;3.60;;;;;;;16.95;41.98;102242.94;4992846;28;20113;-68
2022/04/15 02:38:03;;;;;;;5.97;3.33;;;;;;;16.91;43.53;102247.78;4993824;28;20026;-68
2022/04/15 02:40:29;;;;;;;8.50;3.88;;;;;;;16.89;43.49;102250.59;4992629;28;20117;-69
2022/04/15 02:42:54;;;;;;;7.55;4.07;;;;;;;16.86;42.38;102253.56;4984141;28;20062;-68
2022/04/15 02:45:21;;;;;;;6.32;4.05;;;;;;;16.85;43.19;102248.31;4972954;28;20072;-67
2022/04/15 02:47:47;;;;;;;7.72;3.75;;;;;;;16.84;43.12;102252.00;4974448;28;20061;-67
2022/04/15 02:50:12;;;;;;;5.72;3.50;;;;;;;16.81;42.03;102247.72;4974511;28;20107;-67
2022/04/15 02:52:38;;;;;;;3.25;2.83;;;;;;;16.80;42.58;102250.56;4974414;28;20030;-68
2022/04/15 02:55:04;;;;;;;7.75;4.25;;;;;;;16.77;42.69;102256.25;4974092;28;20050;-68
2022/04/15 02:57:29;;;;;;;4.95;3.35;;;;;;;16.73;42.97;102258.34;4973903;28;20116;-68
2022/04/15 02:59:54;;;;;;;6.07;3.63;;;;;;;16.69;42.12;102259.63;4974255;28;20034;-68
2022/04/15 03:02:20;;;;;;;6.65;4.30;;;;;;;16.69;43.13;102258.78;4973806;28;20025;-67
2022/04/15 03:04:46;;;;;;;8.80;4.07;;;;;;;16.67;42.72;102263.44;4974305;28;20025;-66
2022/04/15 03:07:11;;;;;;;13.07;6.60;;;;;;;16.64;43.95;102261.84;4973266;28;20538;-67
2022/04/15 03:09:37;;;;;;;10.88;6.53;;;;;;;16.61;42.66;102264.81;4973909;28;20059;-68
2022/04/15 03:12:02;;;;;;;13.68;7.03;;;;;;;16.61;43.59;102258.59;4972522;28;20062;-68
2022/04/15 03:14:28;;;;;;;11.07;6.82;;;;;;;16.56;42.47;102252.69;4973695;28;20089;-67
2022/04/15 03:16:53;;;;;;;13.02;5.93;;;;;;;16.58;42.23;102262.38;4973790;28;20104;-68
2022/04/15 03:19:18;;;;;;;10.80;6.70;;;;;;;16.57;43.44;102265.22;4973684;28;20065;-69
2022/04/15 03:21:44;;;;;;;11.98;7.10;;;;;;;16.55;43.61;102257.28;4973705;28;20042;-68
2022/04/15 03:24:09;;;;;;;12.32;6.72;;;;;;;16.54;43.69;102265.50;4972424;28;20029;-67
2022/04/15 03:26:34;;;;;;;14.80;6.97;;;;;;;16.51;42.51;102261.19;4973588;28;20025;-68
2022/04/15 03:29:00;;;;;;;15.75;6.85;;;;;;;16.49;43.13;102257.75;4973617;28;20047;-67
2022/04/15 03:31:25;;;;;;;9.43;5.18;;;;;;;16.47;42.39;102257.00;4973761;28;20037;-69
2022/04/15 03:33:51;;;;;;;7.05;4.28;;;;;;;16.45;43.98;102266.25;4973720;28;20043;-68
2022/04/15 03:36:16;;;;;;;7.05;3.63;;;;;;;16.42;42.83;102264.66;4974030;28;20056;-68
2022/04/15 03:38:42;;;;;;;6.20;3.88;;;;;;;16.38;44.02;102265.06;4973663;28;20034;-68
2022/04/15 03:41:07;;;;;;;7.57;3.90;;;;;;;16.35;43.26;102266.19;4973774;28;20029;-67
2022/04/15 03:43:33;;;;;;;7.35;4.15;;;;;;;16.32;43.80;102266.47;4973396;28;20030;-68
2022/04/15 03:45:59;;;;;;;10.77;5.13;;;;;;;16.29;43.47;102261.31;4974404;28;20029;-68
2022/04/15 03:48:25;;;;;;;12.55;5.95;;;;;;;16.27;43.53;102269.53;4977788;28;20025;-68
2022/04/15 03:50:51;;;;;;;10.15;5.18;;;;;;;16.26;43.41;102269.69;4977565;28;20523;-68
2022/04/15 03:53:16;;;;;;;9.30;5.43;;;;;;;16.22;43.98;102260.97;4977188;28;20027;-67
2022/04/15 03:55:41;;;;;;;6.28;3.92;;;;;;;16.20;42.80;102268.34;4977294;28;20566;-68
2022/04/15 03:58:07;;;;;;;8.30;4.88;;;;;;;16.18;43.67;102267.63;4977176;28;20472;-68
2022/04/15 04:00:32;;;;;;;10.68;5.88;;;;;;;16.17;43.16;102262.34;4992168;28;20590;-69
2022/04/15 04:02:58;;;;;;;8.48;4.65;;;;;;;16.15;43.03;102269.72;4976957;28;20054;-67
2022/04/15 04:05:23;;;;;;;5.13;3.15;;;;;;;16.12;44.16;102268.16;4977071;28;20113;-68
2022/04/15 04:07:50;;;;;;;10.10;3.78;;;;;;;16.11;42.29;102270.97;4976896;28;20031;-68
2022/04/15 04:10:15;;;;;;;7.40;3.88;;;;;;;16.08;43.67;102268.56;4976938;28;20025;-68
2022/04/15 04:12:42;;;;;;;9.48;4.40;;;;;;;16.03;43.86;102268.91;4976963;28;20027;-68
2022/04/15 04:15:09;;;;;;;5.95;3.78;;;;;;;16.03;43.84;102268.06;4976877;28;20468;-67
2022/04/15 04:17:34;;;;;;;10.18;4.53;;;;;;;16.01;43.04;102272.75;4976816;28;20062;-69
2022/04/15 04:20:01;;;;;;;9.15;4.55;;;;;;;15.98;42.34;102276.56;4991831;28;20121;-68
2022/04/15 04:22:30;;;;;;;7.30;4.43;;;;;;;15.95;42.80;102274.13;4976708;28;20392;-68
2022/04/15 04:24:56;;;;;;;10.32;5.18;;;;;;;15.93;43.41;102269.84;4975591;28;20035;-67
2022/04/15 04:27:21;;;;;;;12.77;6.00;;;;;;;15.93;43.38;102281.50;4976787;28;20035;-68
2022/04/15 04:29:47;;;;;;;10.05;5.80;;;;;;;15.90;43.58;102280.91;4976591;28;20052;-68
2022/04/15 04:32:14;;;;;;;9.48;5.10;;;;;;;15.89;44.27;102284.56;4976577;28;20051;-68
2022/04/15 04:34:39;;;;;;;12.57;5.80;;;;;;;15.85;44.28;102277.72;4976870;28;20027;-69
2022/04/15 04:37:05;;;;;;;8.18;4.78;;;;;;;15.85;43.47;102283.13;4976704;28;20388;-68
2022/04/15 04:39:30;;;;;;;13.40;5.63;;;;;;;15.82;43.64;102289.66;4975341;28;20058;-68
2022/04/15 04:41:57;;;;;;;10.60;5.28;;;;;;;15.81;43.85;102287.06;4976437;28;20050;-69
2022/04/15 04:44:22;;;;;;;10.07;5.03;;;;;;;15.78;43.65;102281.91;4976315;28;20026;-68
2022/04/15 04:46:48;;;;;;;9.80;5.55;;;;;;;15.78;43.93;102298.97;4975017;28;20031;-68
2022/04/15 04:49:13;;;;;;;13.20;5.72;;;;;;;15.77;44.10;102301.81;4991311;28;20387;-68
2022/04/15 04:51:39;;;;;;;9.45;5.13;;;;;;;15.76;43.99;102294.69;4976352;28;20023;-68
2022/04/15 04:54:08;;;;;;;18.85;6.60;;;;;;;15.76;44.04;102302.78;4979891;28;20051;-67
2022/04/15 04:56:33;;;;;;;12.07;6.07;;;;;;;15.77;43.99;102309.94;4977280;28;20034;-68
2022/04/15 04:58:59;;;;;;;11.57;6.00;;;;;;;15.74;43.00;102302.94;4989970;28;20488;-68
2022/04/15 05:01:24;;;;;;;11.57;6.20;;;;;;;15.76;43.70;102316.31;4975897;28;20428;-68
2022/04/15 05:03:50;;;;;;;10.27;5.18;;;;;;;15.76;43.11;102317.16;4976000;28;20031;-67
2022/04/15 05:06:15;;;;;;;10.00;4.40;;;;;;;15.76;43.89;102321.72;4975986;28;20400;-68
2022/04/15 05:08:40;;;;;;;4.32;3.30;;;;;;;15.76;42.73;102317.16;4975925;28;20018;-67
2022/04/15 05:11:06;;;;;;;5.00;2.97;;;;;;;15.78;42.58;102322.44;4975826;28;20042;-67
2022/04/15 05:13:31;;;;;;;7.78;4.18;;;;;;;15.79;43.85;102321.47;4975676;28;20050;-68
2022/04/15 05:15:56;;;;;;;5.93;3.83;;;;;;;15.82;43.31;102327.47;4975774;28;20034;-68
2022/04/15 05:18:22;;;;;;;9.30;4.50;;;;;;;15.86;43.35;102322.66;4975651;28;20158;-67
2022/04/15 05:20:47;;;;;;;10.20;4.60;;;;;;;15.90;43.00;102329.53;4975569;28;20074;-68
2022/04/15 05:23:13;;;;;;;6.13;3.60;;;;;;;15.95;43.27;102333.56;4990287;28;20077;-68
2022/04/15 05:25:38;;;;;;;7.45;4.03;;;;;;;16.01;43.99;102334.91;4994975;28;20049;-69
2022/04/15 05:28:04;;;;;;;7.72;4.28;;;;;;;16.06;42.66;102333.53;4994957;28;20077;-67
2022/04/15 05:30:29;;;;;;;10.10;4.72;;;;;;;16.15;44.25;102340.91;4994967;28;20061;-68
2022/04/15 05:32:55;;;;;;;10.85;5.15;;;;;;;16.23;43.51;102340.25;4994843;28;20105;-68
2022/04/15 05:35:20;;;;;;;13.90;6.20;;;;;;;16.30;43.32;102345.00;4994704;28;20026;-68
2022/04/15 05:37:46;;;;;;;11.23;5.88;;;;;;;16.40;43.48;102347.78;4994632;28;20026;-68
2022/04/15 05:40:11;;;;;;;16.13;5.95;;;;;;;16.55;44.28;102354.66;4994787;28;20041;-68
2022/04/15 05:42:36;;;;;;;17.00;8.50;;;;;;;16.70;43.11;102353.34;4994648;28;20025;-68
2022/04/15 05:45:02;;;;;;;19.90;9.20;;;;;;;16.84;43.87;102357.56;4994678;28;20064;-68
2022/04/15 05:47:27;;;;;;;18.80;8.82;;;;;;;16.96;44.44;102363.75;4994848;28;20109;-69
2022/04/15 05:49:53;;;;;;;19.20;10.07;;;;;;;17.09;44.63;102365.25;4994805;28;20093;-68
2022/04/15 05:52:18;;;;;;;23.83;10.27;;;;;;;17.27;44.21;102368.22;4994633;28;20032;-68
2022/04/15 05:54:43;;;;;;;19.60;8.88;;;;;;;17.46;43.99;102371.88;4993186;28;20198;-68
2022/04/15 05:57:09;;;;;;;24.17;10.45;;;;;;;17.64;43.30;102377.56;4993087;28;20026;-68
2022/04/15 05:59:34;;;;;;;20.00;10.15;;;;;;;17.85;43.57;102380.19;4994575;28;20534;-67
2022/04/15 06:01:59;;;;;;;18.48;10.18;;;;;;;18.06;43.13;102371.97;4993155;28;20121;-68
2022/04/15 06:04:25;;;;;;;22.90;10.13;;;;;;;18.25;43.23;102372.00;4994664;28;20395;-67
2022/04/15 06:06:50;;;;;;;17.15;9.57;;;;;;;18.43;43.18;102387.41;4994475;28;20120;-68
2022/04/15 06:09:16;;;;;;;22.13;9.32;;;;;;;18.58;43.59;102379.75;4994540;28;20033;-69
2022/04/15 06:11:41;;;;;;;20.25;9.13;;;;;;;18.78;42.94;102386.88;4994637;28;20077;-68
2022/04/15 06:14:10;;;;;;;18.67;9.38;;;;;;;18.95;43.70;102388.00;4994690;28;20029;-69
2022/04/15 06:16:38;;;;;;;20.25;9.35;;;;;;;19.07;43.11;102393.13;4994746;28;20027;-67
2022/04/15 06:19:06;;;;;;;26.02;9.80;;;;;;;19.22;43.39;102400.81;4993088;28;20530;-67
2022/04/15 06:21:32;;;;;;;18.60;9.52;;;;;;;19.31;42.95;102394.50;5009322;28;20476;-68
2022/04/15 06:23:58;;;;;;;23.35;10.10;;;;;;;19.41;43.15;102400.78;4995301;28;20046;-68
2022/04/15 06:26:26;;;;;;;19.67;9.55;;;;;;;19.56;43.26;102410.19;4994202;28;20175;-67
2022/04/15 06:28:51;;;;;;;17.17;9.35;;;;;;;19.65;42.52;102406.59;4993918;28;20050;-68
2022/04/15 06:31:17;;;;;;;19.58;11.23;;;;;;;19.73;43.15;102406.69;4994103;28;20037;-68
2022/04/15 06:33:42;;;;;;;18.23;10.57;;;;;;;19.85;43.11;102410.06;4993841;28;20408;-68
2022/04/15 06:36:08;;;;;;;21.20;10.55;;;;;;;19.94;42.85;102404.56;4994645;28;20505;-68
2022/04/15 06:38:33;;;;;;;21.80;9.75;;;;;;;19.99;42.40;102418.56;4994240;28;20042;-67
2022/04/15 06:40:59;;;;;;;14.95;9.32;;;;;;;19.96;42.99;102418.84;4994633;28;20062;-67
2022/04/15 06:43:24;;;;;;;20.20;10.68;;;;;;;19.96;42.71;102421.56;4992565;28;20034;-68
2022/04/15 06:45:50;;;;;;;17.73;9.60;;;;;;;19.88;43.37;102416.03;4994136;28;20030;-68
2022/04/15 06:48:15;;;;;;;19.50;10.15;;;;;;;19.85;43.49;102420.94;4993844;28;20030;-68
2022/04/15 06:50:40;;;;;;;19.60;11.05;;;;;;;19.81;43.43;102430.41;4992727;28;20029;-68
2022/04/15 06:53:06;;;;;;;20.13;10.63;;;;;;;19.77;43.36;102438.00;4994175;28;20033;-68
2022/04/15 06:55:31;;;;;;;20.00;10.32;;;;;;;19.73;43.59;102431.16;4993381;28;20403;-67
2022/04/15 06:57:57;;;;;;;20.10;10.80;;;;;;;19.70;43.42;102434.19;4993813;28;20026;-67
2022/04/15 07:00:23;;;;;;;18.08;10.75;;;;;;;19.63;43.41;102436.63;4993805;28;20105;-68
2022/04/15 07:02:49;;;;;;;18.92;10.77;;;;;;;19.56;43.91;102442.81;4994076;28;20022;-67
2022/04/15 07:05:15;;;;;;;23.83;10.38;;;;;;;19.48;44.19;102439.97;4993896;28;20050;-67
2022/04/15 07:07:41;;;;;;;22.25;10.32;;;;;;;19.42;43.63;102446.00;4992222;28;20396;-68
2022/04/15 07:10:08;;;;;;;19.38;10.80;;;;;;;19.35;44.03;102445.69;4993224;28;20022;-68
2022/04/15 07:12:34;;;;;;;16.63;9.80;;;;;;;19.28;43.92;102451.84;4986393;28;20065;-67
2022/04/15 07:15:00;;;;;;;19.23;10.40;;;;;;;19.21;43.49;102461.59;4976847;28;20034;-68
2022/04/15 07:17:25;;;;;;;21.63;10.05;;;;;;;19.12;43.57;102457.91;4974201;28;20463;-68
2022/04/15 07:19:51;;;;;;;19.05;9.68;;;;;;;19.05;44.13;102457.59;4974390;28;20459;-68
2022/04/15 07:22:19;;;;;;;22.73;9.73;;;;;;;18.99;43.73;102460.91;4978277;28;20034;-68
2022/04/15 07:24:46;;;;;;;20.17;9.25;;;;;;;18.93;44.67;102466.91;4980505;28;20030;-68
2022/04/15 07:27:11;;;;;;;22.60;10.45;;;;;;;18.88;43.95;102469.19;4981777;28;20543;-68
2022/04/15 07:29:36;;;;;;;19.67;9.77;;;;;;;18.83;44.34;102471.47;4999535;28;20078;-68
2022/04/15 07:32:02;;;;;;;17.55;9.07;;;;;;;18.80;44.61;102477.19;5000320;28;20038;-68
2022/04/15 07:34:28;;;;;;;17.50;9.25;;;;;;;18.75;43.87;102474.06;5000434;28;20380;-68
2022/04/15 07:36:59;;;;;;;20.75;10.10;;;;;;;18.72;44.48;102473.47;4999937;28;20029;-68
2022/04/15 07:39:24;;;;;;;20.48;10.40;;;;;;;18.67;44.28;102471.19;4999985;28;20365;-69
2022/04/15 07:41:51;;;;;;;19.92;10.20;;;;;;;18.61;44.52;102479.91;4999982;28;20030;-68
2022/04/15 07:44:16;;;;;;;21.13;10.30;;;;;;;18.57;44.45;102486.59;5000041;28;20089;-68
2022/04/15 07:46:43;;;;;;;19.90;9.32;;;;;;;18.54;43.90;102486.88;4998248;28;20113;-68
2022/04/15 07:49:09;;;;;;;16.38;8.73;;;;;;;18.53;44.16;102485.19;4999363;28;20030;-68
2022/04/15 07:51:36;;;;;;;19.52;8.30;;;;;;;18.49;43.72;102495.44;4999932;28;20069;-68
2022/04/15 07:54:02;;;;;;;16.05;8.23;;;;;;;18.44;44.19;102497.69;4999704;28;20027;-68
2022/04/15 07:56:27;;;;;;;17.08;8.68;;;;;;;18.41;43.99;102491.69;4999836;28;20089;-68
2022/04/15 07:58:53;;;;;;;17.98;8.45;;;;;;;18.39;44.68;102493.69;4999538;28;20057;-68
2022/04/15 08:01:19;;;;;;;16.33;8.30;;;;;;;18.39;44.23;102491.84;4999772;28;20030;-67
2022/04/15 08:03:45;;;;;;;18.50;9.25;;;;;;;18.40;44.25;102493.53;4999938;28;20442;-68
2022/04/15 08:06:11;;;;;;;16.10;8.73;;;;;;;18.39;44.72;102499.09;4998658;28;20022;-68
2022/04/15 08:08:36;;;;;;;16.38;8.32;;;;;;;18.38;44.79;102505.53;5000005;28;20078;-69
2022/04/15 08:11:02;;;;;;;15.50;8.35;;;;;;;18.34;44.54;102496.78;4999583;28;20057;-68
2022/04/15 08:13:27;;;;;;;17.38;8.30;;;;;;;18.36;44.91;102504.81;4999504;28;20033;-68
2022/04/15 08:15:53;;;;;;;17.15;8.63;;;;;;;18.30;44.66;102506.22;4999326;28;20062;-68
2022/04/15 08:18:23;;;;;;;15.48;8.30;;;;;;;18.29;44.51;102503.63;4998746;28;20018;-67
2022/04/15 08:20:50;;;;;;;12.55;6.88;;;;;;;18.30;43.64;102510.78;4998748;28;20073;-68
2022/04/15 08:23:19;;;;;;;13.80;6.88;;;;;;;18.30;45.26;102514.38;4999914;28;20030;-68
2022/04/15 08:25:45;;;;;;;14.82;7.47;;;;;;;18.31;45.40;102509.78;4998001;28;20028;-68
2022/04/15 08:28:11;;;;;;;14.93;7.63;;;;;;;18.30;44.11;102508.06;4998124;28;20531;-67
2022/04/15 08:30:37;;;;;;;15.15;7.85;;;;;;;18.30;44.11;102511.66;4981970;28;20061;-69
2022/04/15 08:33:07;;;;;;;11.95;7.00;;;;;;;18.31;44.33;102504.38;4997772;28;20030;-68
2022/04/15 08:35:33;;;;;;;11.63;7.38;;;;;;;18.35;44.77;102517.50;4979269;28;20026;-68
2022/04/15 08:37:59;;;;;;;12.80;6.72;;;;;;;18.41;44.53;102513.38;4976916;28;20034;-68
2022/04/15 08:40:34;;;;;;;14.52;7.15;;;;;;;18.43;44.75;102514.09;4975526;28;20029;-68
2022/04/15 08:43:00;;;;;;;12.43;7.15;;;;;;;18.41;44.76;102513.38;4976022;28;20023;-68
2022/04/15 08:45:26;;;;;;;13.40;6.80;;;;;;;18.43;44.81;102519.53;4975947;28;20441;-68
2022/04/15 08:47:57;;;;;;;12.93;5.82;;;;;;;18.43;44.84;102524.94;4975478;28;20054;-68
2022/04/15 08:50:23;;;;;;;12.57;6.30;;;;;;;18.43;44.90;102533.09;4976812;28;20038;-68
2022/04/15 08:52:53;;;;;;;11.48;6.43;;;;;;;18.42;45.40;102531.41;4976916;28;20027;-69
2022/04/15 08:55:21;;;;;;;10.75;6.32;;;;;;;18.43;45.47;102538.53;4976805;28;20027;-68
2022/04/15 08:57:47;;;;;;;11.88;7.63;;;;;;;18.43;44.95;102546.66;4975171;28;20031;-68
2022/04/15 09:00:14;;;;;;;12.43;6.97;;;;;;;18.43;43.87;102543.94;4976515;28;20050;-69
2022/04/15 09:02:39;;;;;;;15.18;6.95;;;;;;;18.44;44.75;102542.97;4975572;28;20484;-68
2022/04/15 09:05:05;;;;;;;18.20;7.55;;;;;;;18.43;44.65;102558.38;4975843;28;20033;-67
2022/04/15 09:07:31;;;;;;;16.35;7.55;;;;;;;18.42;43.94;102542.25;4976663;28;20448;-68
2022/04/15 09:09:58;;;;;;;15.88;7.47;;;;;;;18.44;44.84;102551.09;4975779;28;20031;-69
2022/04/15 09:12:31;;;;;;;11.98;6.78;;;;;;;18.45;44.98;102550.13;4974985;28;20031;-68
2022/04/15 09:15:01;;;;;;;14.73;7.07;;;;;;;18.48;44.83;102553.41;4976362;28;20038;-68
2022/04/15 09:17:29;;;;;;;13.13;7.35;;;;;;;18.51;44.84;102552.28;4976247;28;20101;-68
2022/04/15 09:19:55;;;;;;;14.63;7.53;;;;;;;18.56;44.31;102550.03;4975081;28;20031;-69
2022/04/15 09:22:20;;;;;;;12.60;6.50;;;;;;;18.61;44.36;102558.63;4974693;28;20039;-68
2022/04/15 09:24:47;;;;;;;10.88;5.85;;;;;;;18.68;44.33;102565.19;4975847;28;20023;-67
2022/04/15 09:27:12;;;;;;;11.82;7.03;;;;;;;18.76;44.63;102568.06;4975785;28;20039;-67
2022/04/15 09:29:40;;;;;;;10.07;6.53;;;;;;;18.86;44.49;102562.66;4974522;28;20408;-68
2022/04/15 09:32:10;;;;;;;12.27;5.75;;;;;;;18.98;43.77;102565.09;4974789;28;20018;-68
2022/04/15 09:34:55;;;;;;;10.63;7.13;;;;;;;19.06;43.56;102568.00;4974459;28;20499;-67
2022/04/15 09:37:22;;;;;;;10.32;6.15;;;;;;;19.08;43.69;102563.28;4975037;28;20385;-68
2022/04/15 09:40:18;;;;;;;12.23;6.35;;;;;;;19.14;44.85;102575.44;4974471;28;20034;-68
2022/04/15 09:42:57;;;;;;;10.70;5.82;;;;;;;19.21;43.82;102570.28;4974769;28;20038;-67
2022/04/15 09:45:31;;;;;;;14.45;6.35;;;;;;;19.35;43.29;102575.28;4975737;28;20034;-69
2022/04/15 09:47:58;;;;;;;13.82;6.43;;;;;;;19.46;43.51;102564.28;4976152;28;20388;-68
2022/04/15 09:50:34;;;;;;;10.18;6.22;;;;;;;19.60;43.26;102574.72;4985436;28;20479;-67
2022/04/15 09:53:13;;;;;;;11.27;5.20;;;;;;;19.65;43.43;102567.84;4995333;28;20025;-68
2022/04/15 09:55:40;;;;;;;10.50;5.50;;;;;;;19.80;43.18;102573.69;4993807;28;20032;-67
2022/04/15 09:58:18;;;;;;;11.75;6.15;;;;;;;20.02;42.66;102584.22;5026967;22;20046;-68
2022/04/15 10:00:48;;;;;;;14.85;6.32;;;;;;;20.16;42.50;102575.56;4958397;28;20027;-67
2022/04/15 10:03:18;;;;;;;11.05;6.30;;;;;;;20.39;42.20;102572.50;4975561;28;20058;-67
2022/04/15 10:05:44;;;;;;;14.40;7.07;;;;;;;20.52;42.05;102573.88;4975230;28;20392;-66
2022/04/15 10:08:10;;;;;;;13.63;6.90;;;;;;;20.61;42.44;102577.56;4957830;28;20038;-67
2022/04/15 10:10:36;;;;;;;12.40;7.35;;;;;;;20.67;42.64;102571.50;4974122;28;20030;-66
2022/04/15 10:13:04;;;;;;;11.57;7.05;;;;;;;20.77;42.05;102573.16;4974428;28;20031;-67
2022/04/15 10:15:31;;;;;;;12.85;7.00;;;;;;;20.98;42.17;102559.25;4973600;28;20027;-67
2022/04/15 10:17:59;;;;;;;13.30;7.30;;;;;;;21.19;41.85;102557.09;4974514;28;20022;-67
2022/04/15 10:20:25;;;;;;;15.88;7.25;;;;;;;21.36;41.81;102564.44;4973487;28;20023;-67
2022/04/15 10:22:51;;;;;;;15.82;8.20;;;;;;;21.49;41.67;102561.31;4974741;28;20440;-67
2022/04/15 10:25:16;;;;;;;11.98;7.07;;;;;;;21.82;41.46;102556.94;4973806;28;20022;-67
2022/04/15 10:27:41;;;;;;;10.65;6.32;;;;;;;22.47;40.40;102555.47;4974747;28;20049;-66
2022/04/15 10:30:21;;;;;;;10.90;7.88;;;;;;;23.05;40.40;102555.50;4975032;28;20095;-67
2022/04/15 10:32:55;;;;;;;14.63;9.80;;;;;;;23.46;39.18;102553.66;4975030;28;20022;-67
2022/04/15 10:35:34;;;;;;;11.88;7.55;;;;;;;24.38;38.85;102551.28;4974840;28;20031;-67
2022/04/15 10:38:01;;;;;;;12.40;9.00;;;;;;;25.21;37.42;102548.78;4973556;28;20097;-67
2022/04/15 10:40:33;;;;;;;9.32;7.07;;;;;;;25.46;37.56;102542.06;4973353;28;20030;-66
2022/04/15 10:43:06;;;;;;;11.80;7.68;;;;;;;25.86;37.30;102538.94;4957358;28;20030;-67
2022/04/15 10:45:35;;;;;;;;;;;;;;;26.10;37.01;102540.56;4973761;28;20125;-67
2022/04/15 10:48:02;;;;;;;10.80;5.55;;;;;;;26.04;37.58;102541.31;4974325;28;19925;-67
2022/04/15 10:50:32;;;;;;;7.07;5.07;;;;;;;25.71;37.59;102539.97;4957406;28;20511;-67
2022/04/15 10:53:23;;;;;;;12.27;4.90;;;;;;;25.40;37.83;102534.56;4973209;28;20050;-67
2022/04/15 10:55:52;;;;;;;10.20;5.28;;;;;;;25.12;37.96;102534.25;4973776;28;20488;-67
2022/04/15 10:58:18;;;;;;;9.85;5.05;;;;;;;24.86;37.38;102523.63;4972844;28;20050;-68
2022/04/15 11:03:31;;;;;;;7.22;5.75;;;;;;;25.04;37.67;102531.59;4974404;28;20057;-67
2022/04/15 11:05:59;;;;;;;7.50;5.15;;;;;;;24.93;37.03;102525.66;4974272;28;20055;-67
2022/04/15 11:08:27;;;;;;;5.43;4.32;;;;;;;24.94;37.32;102532.84;4974198;28;20019;-67
2022/04/15 11:10:54;;;;;;;8.65;5.18;;;;;;;25.04;37.35;102526.09;4964964;28;20031;-67
2022/04/15 11:13:23;;;;;;;6.25;5.00;;;;;;;25.09;37.28;102518.16;4957482;28;20106;-67
2022/04/15 11:15:54;;;;;;;7.70;4.68;;;;;;;25.93;36.00;102520.69;4974265;28;20401;-67
2022/04/15 11:18:19;;;;;;;6.25;4.40;;;;;;;26.22;35.84;102516.22;4957035;28;20113;-67
2022/04/15 11:20:45;;;;;;;6.93;5.88;;;;;;;26.34;35.83;102518.31;4973928;28;20540;-67